Time;durP1;ratioP1;P1;durP2;ratioP2;P2;SDS_P1;SDS_P2;PMS_P1;PMS_P2;Temp;Humidity;BMP_temperature;BMP_pressure;BME280_temperature;BME280_humidity;BME280_pressure;Samples;Min_cycle;Max_cycle;Signal;HPM_P1;HPM_P2
2023/11/02 00:02:38;;;;;;;3.40;0.90;;;;;;;;;;10209283;29;20060;-75
2023/11/02 00:07:45;;;;;;;2.15;1.00;;;;;;;;;;10193428;29;20063;-75
2023/11/02 00:12:49;;;;;;;3.90;0.65;;;;;;;;;;10216402;29;20051;-75
2023/11/02 00:18:00;;;;;;;1.08;0.75;;;;;;;;;;10196909;29;20099;-75
2023/11/02 00:23:10;;;;;;;3.72;0.70;;;;;;;;;;10207877;29;20068;-75
2023/11/02 00:28:14;;;;;;;1.65;0.80;;;;;;;;;;10209444;29;20737;-75
2023/11/02 00:33:20;;;;;;;0.77;0.60;;;;;;;;;;10204707;29;20585;-76
2023/11/02 00:38:27;;;;;;;1.55;0.82;;;;;;;;;;10190308;29;20834;-75
2023/11/02 00:43:31;;;;;;;2.15;0.73;;;;;;;;;;10191229;29;20071;-76
2023/11/02 00:48:35;;;;;;;2.42;0.95;;;;;;;;;;10207555;29;20051;-76
2023/11/02 00:53:43;;;;;;;4.40;1.17;;;;;;;;;;10194638;29;20067;-76
2023/11/02 00:58:49;;;;;;;1.02;0.40;;;;;;;;;;10206387;29;20059;-76
2023/11/02 01:03:55;;;;;;;1.93;0.67;;;;;;;;;;10207029;29;20047;-75
2023/11/02 01:09:03;;;;;;;1.52;0.77;;;;;;;;;;10191882;29;20067;-75
2023/11/02 01:14:13;;;;;;;3.15;0.70;;;;;;;;;;10186333;29;20082;-75
2023/11/02 01:19:51;;;;;;;2.00;0.82;;;;;;;;;;10205652;28;20043;-75
2023/11/02 01:25:00;;;;;;;4.13;0.98;;;;;;;;;;10206480;29;20063;-75
2023/11/02 01:30:10;;;;;;;1.10;0.77;;;;;;;;;;10206643;29;20055;-75
2023/11/02 01:35:39;;;;;;;0.73;0.60;;;;;;;;;;10203377;29;20066;-75
2023/11/02 01:40:51;;;;;;;1.23;0.60;;;;;;;;;;10207403;29;20421;-75
2023/11/02 01:45:59;;;;;;;0.75;0.57;;;;;;;;;;10201409;23;20060;-76
2023/11/02 01:51:09;;;;;;;2.10;0.60;;;;;;;;;;10206448;29;20060;-76
2023/11/02 01:56:33;;;;;;;2.00;0.60;;;;;;;;;;10201087;29;20654;-76
2023/11/02 02:01:42;;;;;;;2.22;1.00;;;;;;;;;;10187840;29;20402;-76
2023/11/02 02:06:57;;;;;;;1.40;0.57;;;;;;;;;;10190023;29;20052;-75
2023/11/02 02:12:11;;;;;;;2.47;0.80;;;;;;;;;;10205687;29;20058;-76
2023/11/02 02:17:20;;;;;;;2.00;0.70;;;;;;;;;;10201331;29;20090;-75
2023/11/02 02:22:28;;;;;;;1.92;0.70;;;;;;;;;;10192896;29;20043;-76
2023/11/02 02:28:10;;;;;;;1.67;0.60;;;;;;;;;;10203312;29;20608;-75
2023/11/02 02:33:30;;;;;;;5.95;0.90;;;;;;;;;;10188955;29;20044;-76
2023/11/02 02:38:41;;;;;;;1.55;0.73;;;;;;;;;;10203877;29;20446;-76
2023/11/02 02:43:46;;;;;;;3.42;1.00;;;;;;;;;;10203394;29;20052;-75
2023/11/02 02:48:49;;;;;;;2.42;0.80;;;;;;;;;;10203478;29;20054;-76
2023/11/02 02:53:58;;;;;;;1.67;0.73;;;;;;;;;;10201417;29;20477;-75
2023/11/02 02:59:03;;;;;;;1.48;0.90;;;;;;;;;;10201840;29;20064;-75
2023/11/02 03:04:11;;;;;;;1.10;0.55;;;;;;;;;;10202381;29;20062;-76
2023/11/02 03:09:17;;;;;;;4.18;1.25;;;;;;;;;;10201309;29;20075;-75
2023/11/02 03:14:22;;;;;;;2.03;0.82;;;;;;;;;;10202447;29;20051;-75
2023/11/02 03:19:43;;;;;;;2.30;0.95;;;;;;;;;;10203016;29;20056;-76
2023/11/02 03:25:02;;;;;;;3.20;0.80;;;;;;;;;;10201394;29;20050;-76
2023/11/02 03:30:17;;;;;;;1.00;0.65;;;;;;;;;;10201219;29;20480;-75
2023/11/02 03:35:29;;;;;;;1.88;0.90;;;;;;;;;;10185743;29;20138;-75
2023/11/02 03:40:44;;;;;;;1.35;0.60;;;;;;;;;;10203827;29;20054;-75
2023/11/02 03:46:13;;;;;;;2.60;0.82;;;;;;;;;;10206387;29;20052;-76
2023/11/02 03:51:29;;;;;;;3.53;0.70;;;;;;;;;;10190857;29;20044;-76
2023/11/02 03:56:45;;;;;;;0.82;0.55;;;;;;;;;;10215267;29;20118;-76
2023/11/02 04:01:59;;;;;;;1.08;0.80;;;;;;;;;;10212490;29;20050;-76
2023/11/02 04:07:05;;;;;;;0.90;0.40;;;;;;;;;;10208853;29;20052;-76
2023/11/02 04:12:18;;;;;;;2.15;0.90;;;;;;;;;;10207771;29;20081;-76
2023/11/02 04:17:22;;;;;;;1.33;0.60;;;;;;;;;;10207422;29;20044;-76
2023/11/02 04:22:25;;;;;;;1.10;0.60;;;;;;;;;;10207261;29;20413;-76
2023/11/02 04:27:30;;;;;;;1.10;0.63;;;;;;;;;;10212184;29;20059;-75
2023/11/02 04:32:33;;;;;;;3.13;1.13;;;;;;;;;;10207649;29;20063;-76
2023/11/02 04:37:37;;;;;;;5.43;0.70;;;;;;;;;;10207232;29;20536;-76
2023/11/02 04:42:41;;;;;;;1.65;0.52;;;;;;;;;;10206967;29;20054;-76
2023/11/02 04:47:44;;;;;;;1.40;0.65;;;;;;;;;;10207079;29;20052;-76
2023/11/02 04:52:48;;;;;;;1.33;0.60;;;;;;;;;;10192138;29;20066;-77
2023/11/02 04:57:53;;;;;;;0.50;0.50;;;;;;;;;;10207869;29;20067;-77
2023/11/02 05:02:56;;;;;;;1.67;0.75;;;;;;;;;;10206799;29;20047;-77
2023/11/02 05:08:00;;;;;;;3.08;0.98;;;;;;;;;;10190096;29;20425;-77
2023/11/02 05:13:04;;;;;;;2.05;0.73;;;;;;;;;;10207321;29;20048;-76
2023/11/02 05:18:08;;;;;;;2.45;0.93;;;;;;;;;;10207411;29;20062;-77
2023/11/02 05:23:11;;;;;;;4.15;0.88;;;;;;;;;;10211833;29;20271;-77
2023/11/02 05:28:16;;;;;;;1.85;0.90;;;;;;;;;;10208190;29;20738;-77
2023/11/02 05:33:19;;;;;;;2.58;0.80;;;;;;;;;;10206762;29;20040;-77
2023/11/02 05:38:23;;;;;;;1.85;0.70;;;;;;;;;;10204506;29;20055;-77
2023/11/02 05:43:27;;;;;;;3.05;0.98;;;;;;;;;;10201918;29;20489;-77
2023/11/02 05:48:31;;;;;;;1.48;0.65;;;;;;;;;;10206976;29;20147;-76
2023/11/02 05:53:34;;;;;;;1.20;0.68;;;;;;;;;;10212575;29;20051;-76
2023/11/02 05:58:38;;;;;;;1.20;0.70;;;;;;;;;;10210877;28;20066;-76
2023/11/02 06:03:42;;;;;;;1.27;0.82;;;;;;;;;;10209256;29;20398;-77
2023/11/02 06:08:45;;;;;;;2.33;0.90;;;;;;;;;;10206419;29;20063;-78
2023/11/02 06:13:50;;;;;;;1.85;0.75;;;;;;;;;;10212060;29;20069;-77
2023/11/02 06:18:53;;;;;;;1.67;0.70;;;;;;;;;;10211685;29;20062;-77
2023/11/02 06:23:57;;;;;;;1.83;0.60;;;;;;;;;;10189689;29;20536;-77
2023/11/02 06:29:01;;;;;;;1.92;0.80;;;;;;;;;;10211980;29;20399;-77
2023/11/02 06:34:05;;;;;;;0.98;0.70;;;;;;;;;;10191294;29;20060;-76
2023/11/02 06:39:08;;;;;;;2.65;0.98;;;;;;;;;;10193181;29;20103;-77
2023/11/02 06:44:13;;;;;;;0.70;0.70;;;;;;;;;;10206844;29;20047;-77
2023/11/02 06:49:16;;;;;;;0.60;0.60;;;;;;;;;;10202377;29;20048;-77
2023/11/02 06:54:19;;;;;;;2.92;0.70;;;;;;;;;;10204819;29;20052;-77
2023/11/02 06:59:24;;;;;;;2.28;1.17;;;;;;;;;;10203570;29;20063;-77
2023/11/02 07:04:29;;;;;;;1.98;0.70;;;;;;;;;;10205050;29;20054;-77
2023/11/02 07:09:32;;;;;;;1.75;0.82;;;;;;;;;;10203653;29;20051;-77
2023/11/02 07:14:37;;;;;;;0.47;0.47;;;;;;;;;;10204077;29;20048;-76
2023/11/02 07:19:40;;;;;;;0.95;0.77;;;;;;;;;;10209155;29;20051;-76
2023/11/02 07:24:43;;;;;;;3.42;1.02;;;;;;;;;;10209053;29;20058;-77
2023/11/02 07:29:48;;;;;;;0.75;0.60;;;;;;;;;;10209945;29;20453;-76
2023/11/02 07:34:51;;;;;;;1.08;0.70;;;;;;;;;;10211434;29;20053;-76
2023/11/02 07:39:54;;;;;;;0.88;0.88;;;;;;;;;;10211112;29;20532;-77
2023/11/02 07:44:59;;;;;;;1.20;0.73;;;;;;;;;;10211542;29;20047;-77
2023/11/02 07:50:03;;;;;;;2.63;0.80;;;;;;;;;;10214251;29;20047;-76
2023/11/02 07:55:09;;;;;;;1.98;0.80;;;;;;;;;;10194605;29;20051;-76
2023/11/02 08:00:15;;;;;;;2.45;0.90;;;;;;;;;;10210861;29;20047;-76
2023/11/02 08:05:19;;;;;;;1.60;0.88;;;;;;;;;;10212503;29;20051;-76
2023/11/02 08:10:22;;;;;;;2.25;1.10;;;;;;;;;;10210501;29;20047;-76
2023/11/02 08:15:27;;;;;;;1.55;0.93;;;;;;;;;;10210723;29;20051;-76
2023/11/02 08:20:30;;;;;;;2.08;1.10;;;;;;;;;;10210074;29;20476;-76
2023/11/02 08:25:34;;;;;;;2.35;1.00;;;;;;;;;;10210270;29;20080;-76
2023/11/02 08:30:38;;;;;;;1.67;0.80;;;;;;;;;;10209317;29;20050;-76
2023/11/02 08:35:42;;;;;;;0.90;0.80;;;;;;;;;;10216846;29;20052;-76
2023/11/02 08:40:45;;;;;;;1.00;0.80;;;;;;;;;;10212503;29;20509;-76
2023/11/02 08:45:50;;;;;;;0.85;0.70;;;;;;;;;;10208907;29;20055;-76
2023/11/02 08:50:53;;;;;;;2.83;1.73;;;;;;;;;;10216045;29;20052;-76
2023/11/02 08:55:57;;;;;;;0.98;0.85;;;;;;;;;;10208477;29;20387;-76
2023/11/02 09:01:03;;;;;;;2.55;1.05;;;;;;;;;;10208532;29;20146;-76
2023/11/02 09:06:07;;;;;;;1.08;0.88;;;;;;;;;;10204705;29;20057;-76
2023/11/02 09:11:10;;;;;;;2.10;1.20;;;;;;;;;;10208040;29;20043;-76
2023/11/02 09:16:15;;;;;;;1.73;0.90;;;;;;;;;;10208080;29;20050;-76
2023/11/02 09:21:18;;;;;;;1.92;1.35;;;;;;;;;;10208063;29;20077;-76
2023/11/02 09:26:21;;;;;;;1.98;1.00;;;;;;;;;;10206386;29;20071;-76
2023/11/02 09:31:29;;;;;;;2.65;1.30;;;;;;;;;;10207543;29;20406;-76
2023/11/02 09:36:32;;;;;;;1.45;1.10;;;;;;;;;;10206990;29;20652;-76
2023/11/02 09:41:36;;;;;;;1.88;0.85;;;;;;;;;;10211187;29;20054;-75
2023/11/02 09:46:41;;;;;;;1.50;1.27;;;;;;;;;;10215286;29;20110;-76
2023/11/02 09:51:44;;;;;;;1.63;1.13;;;;;;;;;;10208742;29;20058;-76
2023/11/02 09:56:48;;;;;;;1.00;0.88;;;;;;;;;;10204697;29;20134;-76
2023/11/02 10:01:54;;;;;;;1.30;0.80;;;;;;;;;;10206287;29;20051;-76
2023/11/02 10:06:58;;;;;;;1.17;1.00;;;;;;;;;;10193517;29;20048;-76
2023/11/02 10:12:01;;;;;;;1.73;0.70;;;;;;;;;;10205958;29;20063;-76
2023/11/02 10:17:06;;;;;;;2.72;0.70;;;;;;;;;;10206327;29;20054;-76
2023/11/02 10:22:09;;;;;;;1.50;0.83;;;;;;;;;;10203068;29;20051;-76
2023/11/02 10:27:16;;;;;;;1.67;0.50;;;;;;;;;;10202061;29;20046;-76
2023/11/02 10:32:22;;;;;;;0.80;0.60;;;;;;;;;;10205672;29;20135;-76
2023/11/02 10:37:33;;;;;;;1.42;1.15;;;;;;;;;;10205012;29;20135;-77
2023/11/02 10:42:38;;;;;;;0.88;0.70;;;;;;;;;;10205800;29;20066;-75
2023/11/02 10:47:43;;;;;;;0.90;0.60;;;;;;;;;;10205227;29;20066;-76
2023/11/02 10:52:47;;;;;;;1.13;0.60;;;;;;;;;;10207900;29;20751;-76
2023/11/02 10:57:51;;;;;;;0.52;0.40;;;;;;;;;;10214531;28;20047;-76
2023/11/02 11:02:57;;;;;;;1.48;0.50;;;;;;;;;;10212947;29;20101;-75
2023/11/02 11:08:04;;;;;;;0.37;0.37;;;;;;;;;;10211301;29;20047;-76
2023/11/02 11:13:10;;;;;;;1.70;0.70;;;;;;;;;;10223009;29;20054;-76
2023/11/02 11:18:16;;;;;;;;;;;;;;;;;;10213030;29;20043;-75
2023/11/02 11:23:19;;;;;;;1.77;0.50;;;;;;;;;;10212031;29;20385;-75
2023/11/02 11:28:29;;;;;;;2.30;0.60;;;;;;;;;;10211869;29;20055;-75
2023/11/02 11:33:52;;;;;;;0.98;0.50;;;;;;;;;;10208994;29;20059;-76
2023/11/02 11:38:56;;;;;;;0.95;0.65;;;;;;;;;;10210533;28;20119;-76
2023/11/02 11:44:07;;;;;;;2.50;0.60;;;;;;;;;;10205830;29;20107;-76
2023/11/02 11:49:46;;;;;;;3.00;0.80;;;;;;;;;;10213742;29;20110;-75
2023/11/02 11:54:49;;;;;;;2.65;0.90;;;;;;;;;;10205083;29;20127;-75
2023/11/02 12:00:10;;;;;;;1.98;0.70;;;;;;;;;;10210892;28;20051;-75
2023/11/02 12:05:38;;;;;;;0.40;0.30;;;;;;;;;;10205577;29;20058;-76
2023/11/02 12:10:45;;;;;;;2.13;0.80;;;;;;;;;;10211314;28;20150;-76
2023/11/02 12:15:57;;;;;;;0.75;0.68;;;;;;;;;;10209784;29;20043;-76
2023/11/02 12:21:04;;;;;;;1.75;0.57;;;;;;;;;;10188675;29;20078;-75
2023/11/02 12:26:10;;;;;;;1.52;0.60;;;;;;;;;;10209264;29;20131;-76
2023/11/02 12:31:25;;;;;;;1.35;0.70;;;;;;;;;;10207886;29;20051;-75
2023/11/02 12:36:30;;;;;;;2.92;0.73;;;;;;;;;;10207683;29;20059;-76
2023/11/02 12:41:34;;;;;;;1.63;0.70;;;;;;;;;;10206851;29;20043;-76
2023/11/02 12:46:40;;;;;;;2.10;0.85;;;;;;;;;;10208133;29;20055;-76
2023/11/02 12:51:46;;;;;;;3.13;0.60;;;;;;;;;;10206465;29;20130;-76
2023/11/02 12:56:52;;;;;;;;;;;;;;;;;;10207867;29;20063;-76
2023/11/02 13:01:59;;;;;;;1.50;0.60;;;;;;;;;;10211355;29;19929;-76
2023/11/02 13:07:20;;;;;;;2.92;0.90;;;;;;;;;;10207783;29;20044;-75
2023/11/02 13:12:23;;;;;;;1.67;0.52;;;;;;;;;;10203787;29;20052;-75
2023/11/02 13:17:27;;;;;;;1.45;0.85;;;;;;;;;;10211450;29;20631;-75
2023/11/02 13:22:32;;;;;;;4.50;1.00;;;;;;;;;;10210690;29;20462;-75
2023/11/02 13:27:36;;;;;;;1.92;0.77;;;;;;;;;;10208070;29;20071;-75
2023/11/02 13:32:39;;;;;;;3.28;0.75;;;;;;;;;;10186774;29;20425;-75
2023/11/02 13:37:46;;;;;;;2.00;0.73;;;;;;;;;;10206731;29;20044;-75
2023/11/02 13:42:49;;;;;;;2.65;0.82;;;;;;;;;;10207064;29;20591;-75
2023/11/02 13:47:53;;;;;;;0.75;0.50;;;;;;;;;;10205676;23;20568;-76
2023/11/02 13:52:57;;;;;;;1.20;0.50;;;;;;;;;;10174515;29;20051;-75
2023/11/02 13:58:01;;;;;;;1.52;0.52;;;;;;;;;;10167699;29;20380;-76
2023/11/02 14:03:04;;;;;;;1.60;0.63;;;;;;;;;;10165139;29;20052;-75
2023/11/02 14:08:10;;;;;;;2.92;0.77;;;;;;;;;;10171176;29;20044;-75
2023/11/02 14:13:14;;;;;;;1.50;0.75;;;;;;;;;;10170318;29;20166;-75
2023/11/02 14:18:17;;;;;;;0.77;0.32;;;;;;;;;;10166335;29;20046;-76
2023/11/02 14:23:22;;;;;;;1.85;0.80;;;;;;;;;;10168610;29;20821;-75
2023/11/02 14:28:25;;;;;;;1.25;0.60;;;;;;;;;;10168747;29;20052;-76
2023/11/02 14:33:30;;;;;;;1.55;0.75;;;;;;;;;;10169236;29;20060;-75
2023/11/02 14:38:34;;;;;;;2.05;0.75;;;;;;;;;;10171134;29;20115;-76
2023/11/02 14:43:37;;;;;;;3.25;0.73;;;;;;;;;;10168701;29;20048;-76
2023/11/02 14:48:41;;;;;;;1.98;0.80;;;;;;;;;;10166567;29;20048;-75
2023/11/02 14:53:45;;;;;;;2.90;0.77;;;;;;;;;;10169672;29;20048;-76
2023/11/02 14:58:49;;;;;;;1.00;0.68;;;;;;;;;;10167352;29;20055;-77
2023/11/02 15:03:52;;;;;;;2.25;0.80;;;;;;;;;;10169661;29;20060;-75
2023/11/02 15:08:57;;;;;;;2.63;1.05;;;;;;;;;;10170134;29;20447;-75
2023/11/02 15:14:03;;;;;;;2.90;0.85;;;;;;;;;;10166868;29;20087;-75
2023/11/02 15:19:06;;;;;;;2.30;0.70;;;;;;;;;;10165661;29;20063;-76
2023/11/02 15:24:11;;;;;;;1.38;0.50;;;;;;;;;;10169347;29;20066;-76
2023/11/02 15:29:15;;;;;;;3.47;1.10;;;;;;;;;;10169936;29;20052;-75
2023/11/02 15:34:19;;;;;;;4.70;1.20;;;;;;;;;;10180054;29;20056;-76
2023/11/02 15:39:24;;;;;;;4.82;0.70;;;;;;;;;;10170914;29;20067;-75
2023/11/02 15:44:27;;;;;;;2.13;0.90;;;;;;;;;;10171898;29;20466;-76
2023/11/02 15:49:32;;;;;;;3.47;1.20;;;;;;;;;;10174006;29;20134;-76
2023/11/02 15:54:40;;;;;;;1.27;0.80;;;;;;;;;;10174715;29;20047;-75
2023/11/02 15:59:44;;;;;;;4.38;1.42;;;;;;;;;;10175293;29;20044;-75
2023/11/02 16:04:49;;;;;;;3.80;1.02;;;;;;;;;;10171513;29;20477;-76
2023/11/02 16:09:54;;;;;;;2.45;1.05;;;;;;;;;;10174188;29;20123;-75
2023/11/02 16:14:57;;;;;;;3.10;0.85;;;;;;;;;;10176148;29;20063;-76
2023/11/02 16:20:01;;;;;;;3.85;1.13;;;;;;;;;;10176937;29;20063;-75
2023/11/02 16:25:07;;;;;;;1.65;0.70;;;;;;;;;;10176451;29;20048;-79
2023/11/02 16:30:11;;;;;;;1.95;1.13;;;;;;;;;;10176359;29;20044;-74
2023/11/02 16:35:16;;;;;;;3.35;1.00;;;;;;;;;;10176347;29;20387;-74
2023/11/02 16:40:21;;;;;;;1.03;0.63;;;;;;;;;;10170442;29;20050;-74
2023/11/02 16:45:25;;;;;;;2.25;0.60;;;;;;;;;;10174316;29;20048;-75
2023/11/02 16:50:28;;;;;;;1.17;0.77;;;;;;;;;;10174011;29;20131;-75
2023/11/02 16:55:34;;;;;;;1.98;0.85;;;;;;;;;;10171780;29;20557;-74
2023/11/02 17:00:38;;;;;;;4.15;0.95;;;;;;;;;;10170820;29;20047;-74
2023/11/02 17:05:43;;;;;;;4.20;1.00;;;;;;;;;;10167263;29;20131;-74
2023/11/02 17:10:47;;;;;;;2.47;0.75;;;;;;;;;;10163316;29;20048;-74
2023/11/02 17:15:53;;;;;;;1.63;0.80;;;;;;;;;;10187194;29;20048;-74
2023/11/02 17:20:57;;;;;;;2.75;1.05;;;;;;;;;;10172447;29;20135;-75
2023/11/02 17:26:01;;;;;;;2.28;0.63;;;;;;;;;;10171132;29;20048;-75
2023/11/02 17:31:08;;;;;;;2.70;1.08;;;;;;;;;;10172413;29;20056;-74
2023/11/02 17:36:12;;;;;;;1.75;0.68;;;;;;;;;;10170390;29;20048;-74
2023/11/02 17:41:17;;;;;;;2.60;0.80;;;;;;;;;;10169576;29;20058;-74
2023/11/02 17:46:20;;;;;;;1.60;0.63;;;;;;;;;;10172267;29;20044;-75
2023/11/02 17:51:24;;;;;;;2.33;0.70;;;;;;;;;;10172933;29;20068;-74
2023/11/02 17:56:29;;;;;;;2.55;0.80;;;;;;;;;;10166104;29;20113;-74
2023/11/02 18:01:35;;;;;;;1.98;0.60;;;;;;;;;;10168205;29;20059;-74
2023/11/02 18:06:38;;;;;;;1.85;1.02;;;;;;;;;;10174131;29;20055;-74
2023/11/02 18:11:43;;;;;;;0.57;0.40;;;;;;;;;;10173688;29;20050;-74
2023/11/02 18:16:46;;;;;;;4.82;0.68;;;;;;;;;;10167824;29;20393;-74
2023/11/02 18:21:50;;;;;;;1.13;0.50;;;;;;;;;;10171153;29;20075;-74
2023/11/02 18:26:58;;;;;;;1.35;0.68;;;;;;;;;;10173423;29;20135;-74
2023/11/02 18:32:01;;;;;;;2.05;0.70;;;;;;;;;;10160537;29;20059;-74
2023/11/02 18:37:04;;;;;;;0.90;0.68;;;;;;;;;;10158148;29;20042;-74
2023/11/02 18:42:09;;;;;;;2.58;0.80;;;;;;;;;;10169704;29;20052;-74
2023/11/02 18:47:14;;;;;;;1.27;0.65;;;;;;;;;;10167592;29;20048;-74
2023/11/02 18:52:42;;;;;;;2.53;1.08;;;;;;;;;;10167090;29;20139;-75
2023/11/02 18:57:47;;;;;;;2.45;0.80;;;;;;;;;;10169760;29;20048;-74
2023/11/02 19:02:50;;;;;;;1.88;0.82;;;;;;;;;;10155745;29;20051;-74
2023/11/02 19:07:58;;;;;;;0.88;0.57;;;;;;;;;;10172093;29;20044;-74
2023/11/02 19:13:04;;;;;;;6.88;1.10;;;;;;;;;;10166427;29;20557;-74
2023/11/02 19:18:07;;;;;;;1.88;1.00;;;;;;;;;;10173124;29;20495;-74
2023/11/02 19:23:12;;;;;;;1.92;1.00;;;;;;;;;;10166470;29;20044;-74
2023/11/02 19:28:16;;;;;;;3.75;1.38;;;;;;;;;;10169383;29;20040;-74
2023/11/02 19:33:20;;;;;;;2.72;0.98;;;;;;;;;;10169727;29;20044;-74
2023/11/02 19:38:23;;;;;;;4.38;1.52;;;;;;;;;;10170668;29;20044;-74
2023/11/02 19:43:28;;;;;;;1.13;0.77;;;;;;;;;;10169592;29;20056;-74
2023/11/02 19:48:31;;;;;;;3.70;1.30;;;;;;;;;;10281098;23;20066;-75
2023/11/02 19:53:36;;;;;;;2.17;1.00;;;;;;;;;;10285375;28;20054;-75
2023/11/02 19:58:40;;;;;;;3.03;1.20;;;;;;;;;;10285811;28;20716;-74
2023/11/02 20:03:44;;;;;;;2.38;1.00;;;;;;;;;;10284617;28;20042;-75
2023/11/02 20:08:47;;;;;;;2.47;1.02;;;;;;;;;;10289726;28;20138;-74
2023/11/02 20:13:53;;;;;;;2.65;1.42;;;;;;;;;;10297030;28;20061;-75
2023/11/02 20:18:56;;;;;;;2.97;1.20;;;;;;;;;;10290906;28;20046;-74
2023/11/02 20:23:59;;;;;;;3.38;1.40;;;;;;;;;;10291196;28;20543;-74
2023/11/02 20:29:04;;;;;;;5.25;1.63;;;;;;;;;;10292170;28;20063;-75
2023/11/02 20:34:07;;;;;;;3.92;1.20;;;;;;;;;;10292418;28;20051;-74
2023/11/02 20:39:11;;;;;;;4.25;1.50;;;;;;;;;;10294312;28;20452;-74
2023/11/02 20:44:17;;;;;;;3.33;1.30;;;;;;;;;;10290934;28;20054;-75
2023/11/02 20:49:20;;;;;;;4.80;1.25;;;;;;;;;;10291205;28;20098;-75
2023/11/02 20:54:23;;;;;;;2.75;1.30;;;;;;;;;;10275145;28;20287;-75
2023/11/02 20:59:28;;;;;;;4.03;0.88;;;;;;;;;;10274668;28;20141;-74
2023/11/02 21:04:31;;;;;;;3.50;1.58;;;;;;;;;;10288321;28;20065;-75
2023/11/02 21:09:34;;;;;;;8.85;1.75;;;;;;;;;;10290025;28;20149;-75
2023/11/02 21:14:43;;;;;;;2.25;1.08;;;;;;;;;;10297528;28;20467;-74
2023/11/02 21:19:46;;;;;;;3.55;1.15;;;;;;;;;;10287699;28;20050;-75
2023/11/02 21:24:53;;;;;;;2.92;0.77;;;;;;;;;;10292328;28;20506;-75
2023/11/02 21:29:58;;;;;;;4.20;1.17;;;;;;;;;;10291035;28;20130;-75
2023/11/02 21:35:02;;;;;;;2.67;1.00;;;;;;;;;;10295461;28;20285;-75
2023/11/02 21:40:09;;;;;;;3.83;1.20;;;;;;;;;;10288387;28;20045;-73
2023/11/02 21:45:14;;;;;;;5.28;1.33;;;;;;;;;;10289536;28;20643;-73
2023/11/02 21:50:18;;;;;;;3.40;1.17;;;;;;;;;;10292262;28;20053;-73
2023/11/02 21:55:21;;;;;;;2.25;0.82;;;;;;;;;;10288150;28;20461;-73
2023/11/02 22:00:26;;;;;;;3.00;1.20;;;;;;;;;;10294733;28;20083;-73
2023/11/02 22:05:30;;;;;;;3.33;1.27;;;;;;;;;;10284998;28;20062;-73
2023/11/02 22:10:34;;;;;;;4.95;1.20;;;;;;;;;;10273376;28;20158;-73
2023/11/02 22:15:38;;;;;;;4.30;1.58;;;;;;;;;;10291245;28;20065;-73
2023/11/02 22:20:44;;;;;;;4.45;1.13;;;;;;;;;;10299189;28;20138;-73
2023/11/02 22:25:48;;;;;;;3.67;1.02;;;;;;;;;;10293342;28;20085;-73
2023/11/02 22:30:52;;;;;;;3.97;1.40;;;;;;;;;;10275232;28;20518;-73
2023/11/02 22:35:57;;;;;;;8.80;1.52;;;;;;;;;;10288161;28;20424;-73
2023/11/02 22:41:01;;;;;;;5.10;1.73;;;;;;;;;;10294219;28;20043;-73
2023/11/02 22:46:07;;;;;;;2.38;1.08;;;;;;;;;;10298594;28;20042;-73
2023/11/02 22:51:12;;;;;;;2.30;0.80;;;;;;;;;;10298126;28;20129;-73
2023/11/02 22:56:17;;;;;;;4.75;1.30;;;;;;;;;;10286161;28;20051;-73
2023/11/02 23:01:22;;;;;;;4.13;1.17;;;;;;;;;;10301728;28;20594;-73
2023/11/02 23:06:25;;;;;;;2.65;1.05;;;;;;;;;;10284216;28;20416;-73
2023/11/02 23:11:29;;;;;;;1.85;0.80;;;;;;;;;;10311276;28;20085;-73
2023/11/02 23:16:33;;;;;;;2.15;0.80;;;;;;;;;;10305503;28;20594;-73
2023/11/02 23:21:37;;;;;;;1.73;0.90;;;;;;;;;;10288957;28;20077;-73
2023/11/02 23:26:41;;;;;;;3.22;1.00;;;;;;;;;;10295033;28;20049;-73
2023/11/02 23:31:45;;;;;;;4.95;0.90;;;;;;;;;;10297532;28;20064;-73
2023/11/02 23:36:49;;;;;;;2.72;1.20;;;;;;;;;;10305145;28;20062;-73
2023/11/02 23:41:52;;;;;;;3.30;1.10;;;;;;;;;;10291453;28;20057;-73
2023/11/02 23:46:57;;;;;;;4.75;0.88;;;;;;;;;;10294891;28;20042;-73
2023/11/02 23:52:00;;;;;;;1.85;0.80;;;;;;;;;;10289803;28;20050;-73
2023/11/02 23:57:03;;;;;;;2.70;0.98;;;;;;;;;;10275534;28;20050;-73
